createdAt,value
2022-08-01T00:00:33.635Z,60.78
2022-08-01T00:01:33.636Z,60.69
2022-08-01T00:02:33.664Z,60.78
2022-08-01T00:03:33.632Z,60.50
2022-08-01T00:04:33.632Z,60.59
2022-08-01T00:05:33.643Z,60.59
2022-08-01T00:06:33.633Z,60.59
2022-08-01T00:07:33.638Z,60.50
2022-08-01T00:08:33.636Z,60.59
2022-08-01T00:09:33.637Z,60.59
2022-08-01T00:10:33.636Z,60.57
2022-08-01T00:11:33.631Z,60.50
2022-08-01T00:12:33.645Z,60.59
2022-08-01T00:13:33.632Z,60.59
2022-08-01T00:14:33.640Z,60.50
2022-08-01T00:15:33.639Z,60.66
2022-08-01T00:16:33.643Z,60.69
2022-08-01T00:17:33.637Z,60.69
2022-08-01T00:18:33.638Z,60.75
2022-08-01T00:19:33.644Z,60.69
2022-08-01T00:20:33.632Z,60.88
2022-08-01T00:21:33.639Z,61.08
2022-08-01T00:22:33.637Z,60.78
2022-08-01T00:23:33.633Z,60.59
2022-08-01T00:24:33.639Z,60.85
2022-08-01T00:25:34.721Z,60.78
2022-08-01T00:26:33.638Z,60.88
2022-08-01T00:27:33.636Z,60.59
2022-08-01T00:28:33.642Z,60.69
2022-08-01T00:30:12.382Z,60.85
2022-08-01T00:30:33.638Z,60.78
2022-08-01T00:31:33.642Z,60.88
2022-08-01T00:32:33.642Z,61.08
2022-08-01T00:33:33.641Z,61.08
2022-08-01T00:34:33.647Z,61.05
2022-08-01T00:35:33.647Z,60.98
2022-08-01T00:36:33.642Z,61.08
2022-08-01T00:37:33.648Z,60.85
2022-08-01T00:38:33.635Z,61.05
2022-08-01T00:39:33.666Z,60.85
2022-08-01T00:40:33.643Z,60.59
2022-08-01T00:41:33.640Z,60.66
2022-08-01T00:42:33.645Z,60.75
2022-08-01T00:43:33.649Z,60.69
2022-08-01T00:44:33.664Z,60.66
2022-08-01T00:45:33.644Z,60.66
2022-08-01T00:46:33.646Z,60.75
2022-08-01T00:47:33.641Z,60.66
2022-08-01T00:48:33.645Z,60.47
2022-08-01T00:49:33.731Z,60.66
2022-08-01T00:50:33.644Z,60.47
2022-08-01T00:51:33.649Z,60.57
2022-08-01T00:52:33.657Z,60.85
2022-08-01T00:53:51.286Z,60.75
2022-08-01T00:54:33.658Z,60.66
2022-08-01T00:55:33.647Z,60.75
2022-08-01T00:56:33.649Z,61.24
2022-08-01T00:58:02.343Z,61.53
2022-08-01T00:58:33.645Z,61.33
2022-08-01T00:59:33.648Z,61.24
2022-08-01T01:00:34.761Z,61.63
2022-08-01T01:01:39.498Z,61.24
2022-08-01T01:02:33.648Z,61.24
2022-08-01T01:03:57.576Z,61.24
2022-08-01T01:04:33.655Z,61.33
2022-08-01T01:05:37.314Z,61.63
2022-08-01T01:06:33.649Z,61.72
2022-08-01T01:07:33.644Z,61.33
2022-08-01T01:08:33.646Z,61.33
2022-08-01T01:09:33.639Z,61.43
2022-08-01T01:10:33.642Z,61.33
2022-08-01T01:11:33.649Z,61.63
2022-08-01T01:12:38.265Z,61.82
2022-08-01T01:13:33.657Z,61.72
2022-08-01T01:14:37.304Z,61.63
2022-08-01T01:15:33.646Z,61.53
2022-08-01T01:16:33.642Z,61.43
2022-08-01T01:17:50.569Z,61.24
2022-08-01T01:18:33.650Z,61.60
2022-08-01T01:19:33.649Z,61.43
2022-08-01T01:20:33.647Z,61.53
2022-08-01T01:21:33.639Z,61.72
2022-08-01T01:22:33.642Z,61.69
2022-08-01T01:23:33.639Z,61.92
2022-08-01T01:24:33.639Z,61.82
2022-08-01T01:25:33.638Z,61.92
2022-08-01T01:26:33.649Z,61.92
2022-08-01T01:27:33.645Z,61.82
2022-08-01T01:28:33.637Z,61.82
2022-08-01T01:29:59.801Z,61.89
2022-08-01T01:30:33.641Z,61.89
2022-08-01T01:31:33.641Z,61.92
2022-08-01T01:32:33.650Z,61.89
2022-08-01T01:33:33.638Z,61.92
2022-08-01T01:34:33.643Z,61.79
2022-08-01T01:35:33.639Z,61.82
2022-08-01T01:36:33.639Z,61.98
2022-08-01T01:37:33.640Z,61.79
2022-08-01T01:38:33.644Z,61.89
2022-08-01T01:39:33.635Z,61.79
2022-08-01T01:40:33.645Z,61.89
2022-08-01T01:41:33.640Z,61.72
2022-08-01T01:42:33.636Z,61.79
2022-08-01T01:43:33.908Z,61.82
2022-08-01T01:44:33.662Z,62.01
2022-08-01T01:45:33.645Z,62.18
2022-08-01T01:46:33.644Z,62.08
2022-08-01T01:47:33.642Z,61.92
2022-08-01T01:48:33.645Z,62.11
2022-08-01T01:49:33.694Z,61.89
2022-08-01T01:50:33.640Z,62.01
2022-08-01T01:51:33.646Z,61.79
2022-08-01T01:52:33.648Z,61.98
2022-08-01T01:53:33.642Z,62.18
2022-08-01T01:54:33.648Z,62.37
2022-08-01T01:55:33.645Z,62.27
2022-08-01T01:56:33.643Z,62.18
2022-08-01T01:57:33.647Z,62.47
2022-08-01T01:58:33.653Z,62.47
2022-08-01T01:59:33.647Z,62.47
2022-08-01T02:00:33.646Z,62.56
2022-08-01T02:02:04.917Z,62.37
2022-08-01T02:02:33.678Z,62.37
2022-08-01T02:03:33.644Z,62.37
2022-08-01T02:04:33.638Z,62.37
2022-08-01T02:05:33.641Z,62.56
2022-08-01T02:06:33.643Z,62.47
2022-08-01T02:07:33.642Z,62.47
2022-08-01T02:08:33.637Z,62.47
2022-08-01T02:09:33.642Z,62.27
2022-08-01T02:10:33.642Z,62.27
2022-08-01T02:11:33.644Z,62.08
2022-08-01T02:12:33.645Z,62.18
2022-08-01T02:13:33.644Z,62.27
2022-08-01T02:14:33.638Z,62.37
2022-08-01T02:15:33.647Z,62.37
2022-08-01T02:16:33.642Z,62.37
2022-08-01T02:17:33.639Z,62.47
2022-08-01T02:18:33.642Z,62.27
2022-08-01T02:19:36.984Z,62.37
2022-08-01T02:20:33.641Z,62.37
2022-08-01T02:21:33.637Z,62.37
2022-08-01T02:22:33.639Z,62.47
2022-08-01T02:23:33.690Z,62.37
2022-08-01T02:24:33.634Z,62.27
2022-08-01T02:25:33.636Z,62.27
2022-08-01T02:26:33.636Z,62.27
2022-08-01T02:27:33.633Z,62.08
2022-08-01T02:28:33.640Z,62.18
2022-08-01T02:29:33.639Z,62.08
2022-08-01T02:30:33.631Z,62.27
2022-08-01T02:31:33.630Z,62.37
2022-08-01T02:32:33.641Z,62.18
2022-08-01T02:33:33.637Z,62.37
2022-08-01T02:34:33.633Z,62.27
2022-08-01T02:35:33.644Z,62.47
2022-08-01T02:36:33.787Z,62.27
2022-08-01T02:37:33.629Z,62.37
2022-08-01T02:38:33.638Z,62.47
2022-08-01T02:39:33.633Z,62.37
2022-08-01T02:40:33.643Z,62.56
2022-08-01T02:41:33.637Z,62.56
2022-08-01T02:42:33.633Z,62.56
2022-08-01T02:43:33.637Z,62.85
2022-08-01T02:44:33.652Z,63.05
2022-08-01T02:45:33.632Z,62.95
2022-08-01T02:46:33.641Z,63.05
2022-08-01T02:47:33.635Z,62.95
2022-08-01T02:48:33.641Z,62.95
2022-08-01T02:49:33.710Z,62.56
2022-08-01T02:50:33.636Z,62.95
2022-08-01T02:51:33.636Z,62.95
2022-08-01T02:52:33.643Z,62.95
2022-08-01T02:53:39.016Z,62.47
2022-08-01T02:54:33.644Z,62.56
2022-08-01T02:55:33.639Z,62.76
2022-08-01T02:56:33.641Z,62.76
2022-08-01T02:57:47.285Z,62.66
2022-08-01T02:58:33.645Z,62.76
2022-08-01T02:59:33.642Z,62.76
2022-08-01T03:00:33.632Z,62.66
2022-08-01T03:01:33.728Z,62.85
2022-08-01T03:02:33.639Z,62.76
2022-08-01T03:03:33.631Z,62.76
2022-08-01T03:04:33.631Z,62.95
2022-08-01T03:05:33.640Z,62.56
2022-08-01T03:06:33.636Z,62.56
2022-08-01T03:07:34.581Z,62.95
2022-08-01T03:08:33.639Z,62.76
2022-08-01T03:09:33.641Z,62.95
2022-08-01T03:10:33.632Z,62.95
2022-08-01T03:11:33.630Z,62.76
2022-08-01T03:12:33.642Z,62.85
2022-08-01T03:13:33.634Z,62.76
2022-08-01T03:14:33.639Z,63.14
2022-08-01T03:15:33.629Z,63.34
2022-08-01T03:16:33.638Z,63.24
2022-08-01T03:17:33.634Z,63.14
2022-08-01T03:18:33.640Z,63.14
2022-08-01T03:19:33.638Z,63.05
2022-08-01T03:20:33.630Z,63.24
2022-08-01T03:21:33.644Z,62.37
2022-08-01T03:22:33.634Z,62.56
2022-08-01T03:23:37.705Z,63.24
2022-08-01T03:24:33.631Z,62.85
2022-08-01T03:25:33.628Z,62.47
2022-08-01T03:26:33.629Z,62.95
2022-08-01T03:27:33.637Z,63.05
2022-08-01T03:28:33.645Z,63.14
2022-08-01T03:29:33.629Z,63.05
2022-08-01T03:30:33.637Z,63.05
2022-08-01T03:31:33.629Z,63.14
2022-08-01T03:32:33.631Z,62.95
2022-08-01T03:33:33.633Z,63.05
2022-08-01T03:34:33.637Z,62.76
2022-08-01T03:35:33.635Z,63.05
2022-08-01T03:36:33.635Z,62.85
2022-08-01T03:37:33.639Z,62.82
2022-08-01T03:38:33.631Z,62.95
2022-08-01T03:39:33.634Z,62.85
2022-08-01T03:40:33.629Z,62.73
2022-08-01T03:41:33.634Z,62.95
2022-08-01T03:42:33.632Z,63.05
2022-08-01T03:43:33.628Z,62.85
2022-08-01T03:44:33.668Z,62.95
2022-08-01T03:45:33.638Z,62.85
2022-08-01T03:46:33.638Z,62.82
2022-08-01T03:47:33.626Z,62.85
2022-08-01T03:48:33.648Z,62.95
2022-08-01T03:49:33.707Z,62.85
2022-08-01T03:50:33.642Z,62.85
2022-08-01T03:51:33.631Z,62.76
2022-08-01T03:52:33.636Z,62.95
2022-08-01T03:53:33.626Z,62.85
2022-08-01T03:54:33.628Z,62.76
2022-08-01T03:55:33.627Z,63.05
2022-08-01T03:56:33.630Z,62.76
2022-08-01T03:57:36.694Z,62.85
2022-08-01T03:58:33.636Z,63.14
2022-08-01T03:59:33.642Z,63.24
2022-08-01T04:00:33.630Z,63.14
2022-08-01T04:01:33.750Z,63.24
2022-08-01T04:02:33.623Z,63.31
2022-08-01T04:03:33.627Z,62.85
2022-08-01T04:04:33.641Z,63.34
2022-08-01T04:05:33.629Z,63.34
2022-08-01T04:06:33.624Z,63.73
2022-08-01T04:07:33.628Z,63.60
2022-08-01T04:08:33.629Z,63.73
2022-08-01T04:09:33.621Z,63.21
2022-08-01T04:10:33.631Z,63.53
2022-08-01T04:11:33.630Z,63.34
2022-08-01T04:12:33.658Z,63.43
2022-08-01T04:13:36.939Z,63.53
2022-08-01T04:14:33.632Z,63.73
2022-08-01T04:15:33.629Z,63.21
2022-08-01T04:16:33.631Z,63.21
2022-08-01T04:17:33.635Z,63.63
2022-08-01T04:18:33.620Z,63.60
2022-08-01T04:19:33.626Z,63.40
2022-08-01T04:20:33.620Z,63.40
2022-08-01T04:21:33.642Z,63.21
2022-08-01T04:22:37.321Z,63.60
2022-08-01T04:23:33.628Z,63.40
2022-08-01T04:24:33.770Z,63.69
2022-08-01T04:25:33.623Z,63.69
2022-08-01T04:26:33.632Z,63.53
2022-08-01T04:27:49.713Z,63.60
2022-08-01T04:28:33.622Z,63.69
2022-08-01T04:29:33.622Z,63.79
2022-08-01T04:30:33.622Z,63.60
2022-08-01T04:31:33.617Z,63.79
2022-08-01T04:32:33.622Z,63.60
2022-08-01T04:33:33.623Z,63.69
2022-08-01T04:34:33.628Z,63.69
2022-08-01T04:36:02.490Z,63.79
2022-08-01T04:36:33.625Z,63.79
2022-08-01T04:37:33.628Z,63.60
2022-08-01T04:38:33.635Z,63.79
2022-08-01T04:39:33.625Z,63.79
2022-08-01T04:40:33.638Z,63.79
2022-08-01T04:41:33.617Z,63.63
2022-08-01T04:42:33.754Z,63.60
2022-08-01T04:43:33.630Z,63.79
2022-08-01T04:44:33.656Z,63.60
2022-08-01T04:45:33.621Z,63.43
2022-08-01T04:46:33.635Z,63.53
2022-08-01T04:47:33.622Z,63.73
2022-08-01T04:48:33.623Z,63.63
2022-08-01T04:49:33.699Z,63.14
2022-08-01T04:50:33.619Z,63.53
2022-08-01T04:51:33.625Z,63.63
2022-08-01T04:52:33.628Z,63.53
2022-08-01T04:53:33.618Z,63.43
2022-08-01T04:54:33.626Z,62.85
2022-08-01T04:55:33.621Z,63.24
2022-08-01T04:56:33.631Z,63.34
2022-08-01T04:57:33.616Z,63.34
2022-08-01T04:58:33.620Z,63.14
2022-08-01T04:59:33.633Z,63.14
2022-08-01T05:00:33.617Z,63.05
2022-08-01T05:01:33.694Z,62.76
2022-08-01T05:02:33.626Z,62.85
2022-08-01T05:03:38.427Z,62.85
2022-08-01T05:04:33.621Z,62.85
2022-08-01T05:05:33.631Z,62.85
2022-08-01T05:06:33.629Z,62.85
2022-08-01T05:07:33.629Z,63.05
2022-08-01T05:08:33.626Z,63.14
2022-08-01T05:09:33.633Z,63.14
2022-08-01T05:10:33.627Z,63.14
2022-08-01T05:11:33.623Z,62.95
2022-08-01T05:12:33.623Z,63.05
2022-08-01T05:13:33.631Z,63.14
2022-08-01T05:14:33.629Z,63.05
2022-08-01T05:15:33.642Z,63.05
2022-08-01T05:16:33.629Z,63.14
2022-08-01T05:17:33.625Z,63.43
2022-08-01T05:18:33.632Z,63.43
2022-08-01T05:19:33.629Z,63.24
2022-08-01T05:20:33.632Z,63.27
2022-08-01T05:21:33.634Z,62.95
2022-08-01T05:22:33.627Z,63.18
2022-08-01T05:23:41.943Z,62.40
2022-08-01T05:24:33.637Z,62.69
2022-08-01T05:25:56.761Z,63.14
2022-08-01T05:26:33.705Z,63.27
2022-08-01T05:27:33.629Z,62.50
2022-08-01T05:28:33.637Z,63.24
2022-08-01T05:29:33.630Z,63.34
2022-08-01T05:30:33.640Z,62.40
2022-08-01T05:31:33.635Z,62.59
2022-08-01T05:32:33.632Z,62.50
2022-08-01T05:33:33.641Z,63.14
2022-08-01T05:34:33.639Z,63.27
2022-08-01T05:35:47.555Z,63.18
2022-08-01T05:36:33.637Z,62.69
2022-08-01T05:37:33.643Z,63.27
2022-08-01T05:38:33.639Z,63.14
2022-08-01T05:39:33.657Z,63.18
2022-08-01T05:40:33.638Z,63.37
2022-08-01T05:41:33.646Z,63.37
2022-08-01T05:42:33.657Z,63.37
2022-08-01T05:43:33.640Z,62.40
2022-08-01T05:44:33.662Z,63.18
2022-08-01T05:45:33.646Z,62.88
2022-08-01T05:46:33.641Z,63.63
2022-08-01T05:47:33.650Z,63.73
2022-08-01T05:48:33.655Z,63.73
2022-08-01T05:49:33.705Z,64.11
2022-08-01T05:50:33.649Z,63.69
2022-08-01T05:51:33.654Z,63.98
2022-08-01T05:52:33.643Z,64.08
2022-08-01T05:53:33.650Z,64.27
2022-08-01T05:54:33.648Z,64.66
2022-08-01T05:55:33.651Z,64.76
2022-08-01T05:56:33.652Z,65.05
2022-08-01T05:57:33.644Z,64.95
2022-08-01T05:58:33.650Z,65.01
2022-08-01T05:59:33.649Z,65.01
2022-08-01T06:00:33.651Z,65.11
2022-08-01T06:01:33.648Z,65.59
2022-08-01T06:02:33.742Z,65.20
2022-08-01T06:03:33.642Z,65.30
2022-08-01T06:04:33.651Z,65.11
2022-08-01T06:05:33.656Z,65.69
2022-08-01T06:06:33.644Z,65.88
2022-08-01T06:07:33.650Z,65.78
2022-08-01T06:08:33.647Z,65.40
2022-08-01T06:09:33.640Z,65.69
2022-08-01T06:10:33.650Z,65.88
2022-08-01T06:11:33.641Z,65.98
2022-08-01T06:12:35.603Z,66.08
2022-08-01T06:13:33.647Z,66.36
2022-08-01T06:14:33.647Z,66.17
2022-08-01T06:15:33.641Z,66.27
2022-08-01T06:16:33.642Z,65.98
2022-08-01T06:17:33.631Z,65.98
2022-08-01T06:18:33.635Z,66.56
2022-08-01T06:19:33.638Z,66.33
2022-08-01T06:20:33.641Z,66.36
2022-08-01T06:21:33.637Z,66.27
2022-08-01T06:22:33.633Z,66.43
2022-08-01T06:23:33.629Z,66.14
2022-08-01T06:24:33.630Z,66.17
2022-08-01T06:25:33.629Z,66.24
2022-08-01T06:26:33.636Z,66.43
2022-08-01T06:27:33.625Z,66.46
2022-08-01T06:28:33.642Z,66.24
2022-08-01T06:29:33.629Z,66.27
2022-08-01T06:30:33.630Z,66.46
2022-08-01T06:31:34.172Z,66.36
2022-08-01T06:32:33.620Z,66.27
2022-08-01T06:33:33.619Z,66.36
2022-08-01T06:34:33.629Z,66.36
2022-08-01T06:35:33.628Z,66.46
2022-08-01T06:36:33.618Z,66.36
2022-08-01T06:37:33.618Z,66.27
2022-08-01T06:38:33.626Z,66.46
2022-08-01T06:39:33.618Z,66.36
2022-08-01T06:40:33.614Z,66.46
2022-08-01T06:41:33.612Z,66.17
2022-08-01T06:42:33.617Z,66.36
2022-08-01T06:43:33.618Z,66.36
2022-08-01T06:44:33.645Z,66.05
2022-08-01T06:45:33.610Z,66.63
2022-08-01T06:46:33.607Z,66.43
2022-08-01T06:47:33.618Z,66.24
2022-08-01T06:48:33.617Z,66.46
2022-08-01T06:49:33.672Z,66.43
2022-08-01T06:50:33.609Z,66.27
2022-08-01T06:51:33.612Z,66.36
2022-08-01T06:52:33.607Z,66.27
2022-08-01T06:53:36.558Z,66.27
2022-08-01T06:54:33.605Z,66.46
2022-08-01T06:55:33.605Z,66.27
2022-08-01T06:56:33.597Z,66.08
2022-08-01T06:57:33.602Z,66.53
2022-08-01T06:58:33.598Z,66.24
2022-08-01T06:59:33.601Z,66.27
2022-08-01T07:00:33.648Z,66.17
2022-08-01T07:01:34.333Z,66.27
2022-08-01T07:02:33.604Z,66.43
2022-08-01T07:03:53.879Z,66.94
2022-08-01T07:04:33.595Z,66.72
2022-08-01T07:05:33.598Z,66.72
2022-08-01T07:06:33.595Z,66.82
2022-08-01T07:07:33.589Z,66.82
2022-08-01T07:08:33.599Z,66.82
2022-08-01T07:09:33.596Z,66.72
2022-08-01T07:10:33.598Z,66.72
2022-08-01T07:11:33.582Z,66.91
2022-08-01T07:12:33.592Z,66.91
2022-08-01T07:13:36.758Z,66.94
2022-08-01T07:14:33.581Z,66.24
2022-08-01T07:15:33.587Z,66.17
2022-08-01T07:16:33.578Z,66.33
2022-08-01T07:17:33.588Z,66.33
2022-08-01T07:18:33.586Z,66.33
2022-08-01T07:19:33.581Z,66.33
2022-08-01T07:20:38.003Z,66.94
2022-08-01T07:21:40.708Z,66.46
2022-08-01T07:22:33.574Z,66.14
2022-08-01T07:23:36.664Z,66.66
2022-08-01T07:24:33.573Z,66.36
2022-08-01T07:25:33.575Z,66.27
2022-08-01T07:26:33.578Z,66.56
2022-08-01T07:27:33.578Z,66.46
2022-08-01T07:28:33.576Z,66.27
2022-08-01T07:29:33.577Z,66.46
2022-08-01T07:30:33.573Z,66.56
2022-08-01T07:31:33.577Z,66.56
2022-08-01T07:32:33.570Z,66.56
2022-08-01T07:33:48.407Z,66.43
2022-08-01T07:34:33.562Z,66.33
2022-08-01T07:35:33.563Z,66.56
2022-08-01T07:36:33.562Z,66.27
2022-08-01T07:37:48.126Z,66.46
2022-08-01T07:38:33.565Z,66.36
2022-08-01T07:39:33.560Z,66.56
2022-08-01T07:40:33.563Z,66.46
2022-08-01T07:41:53.593Z,66.27
2022-08-01T07:42:33.552Z,66.27
2022-08-01T07:43:33.563Z,66.56
2022-08-01T07:44:33.565Z,66.56
2022-08-01T07:45:33.558Z,66.56
2022-08-01T07:46:33.556Z,66.27
2022-08-01T07:47:33.557Z,66.27
2022-08-01T07:48:33.555Z,66.27
2022-08-01T07:49:39.118Z,66.46
2022-08-01T07:50:34.174Z,66.46
2022-08-01T07:51:33.552Z,66.46
2022-08-01T07:52:33.546Z,66.27
2022-08-01T07:53:33.549Z,66.46
2022-08-01T07:54:34.663Z,66.46
2022-08-01T07:55:33.541Z,66.17
2022-08-01T07:56:33.547Z,66.66
2022-08-01T07:57:33.548Z,66.08
2022-08-01T07:58:33.541Z,66.46
2022-08-01T07:59:33.548Z,66.46
2022-08-01T08:00:33.541Z,66.46
2022-08-01T08:01:33.676Z,66.46
2022-08-01T08:02:33.544Z,66.27
2022-08-01T08:03:33.540Z,66.46
2022-08-01T08:04:33.545Z,66.36
2022-08-01T08:05:57.981Z,66.27
2022-08-01T08:06:33.532Z,66.27
2022-08-01T08:07:33.564Z,66.36
2022-08-01T08:08:33.529Z,66.27
2022-08-01T08:09:37.341Z,66.36
2022-08-01T08:10:33.536Z,66.27
2022-08-01T08:11:33.534Z,66.27
2022-08-01T08:12:33.528Z,66.08
2022-08-01T08:13:33.533Z,66.36
2022-08-01T08:14:33.523Z,66.36
2022-08-01T08:15:33.687Z,66.36
2022-08-01T08:16:33.534Z,66.46
2022-08-01T08:17:36.185Z,66.36
2022-08-01T08:18:33.521Z,66.46
2022-08-01T08:19:38.161Z,66.17
2022-08-01T08:20:33.540Z,66.17
2022-08-01T08:21:33.521Z,66.17
2022-08-01T08:22:33.520Z,66.36
2022-08-01T08:23:42.545Z,66.46
2022-08-01T08:24:33.516Z,66.36
2022-08-01T08:25:33.516Z,66.27
2022-08-01T08:26:33.520Z,66.56
2022-08-01T08:27:33.521Z,66.08
2022-08-01T08:28:33.514Z,66.08
2022-08-01T08:29:33.559Z,65.98
2022-08-01T08:30:33.520Z,66.27
2022-08-01T08:31:51.889Z,66.17
2022-08-01T08:32:33.519Z,66.01
2022-08-01T08:33:33.516Z,65.98
2022-08-01T08:34:33.509Z,65.59
2022-08-01T08:35:53.314Z,65.69
2022-08-01T08:36:33.525Z,65.30
2022-08-01T08:37:39.048Z,65.43
2022-08-01T08:38:33.520Z,65.30
2022-08-01T08:39:41.905Z,65.63
2022-08-01T08:40:33.508Z,65.72
2022-08-01T08:41:37.663Z,65.53
2022-08-01T08:42:33.512Z,65.72
2022-08-01T08:43:33.510Z,65.82
2022-08-01T08:44:33.531Z,65.59
2022-08-01T08:45:59.621Z,65.92
2022-08-01T08:46:33.507Z,65.72
2022-08-01T08:47:33.509Z,65.43
2022-08-01T08:48:33.509Z,65.53
2022-08-01T08:49:35.814Z,65.82
2022-08-01T08:50:33.508Z,65.63
2022-08-01T08:51:33.511Z,65.63
2022-08-01T08:52:33.498Z,65.53
2022-08-01T08:53:34.560Z,65.53
2022-08-01T08:54:33.509Z,65.63
2022-08-01T08:55:33.507Z,65.53
2022-08-01T08:56:33.506Z,65.63
2022-08-01T08:57:33.518Z,65.72
2022-08-01T08:58:33.497Z,65.82
2022-08-01T08:59:33.505Z,65.63
2022-08-01T09:00:33.501Z,65.72
2022-08-01T09:01:33.511Z,65.72
2022-08-01T09:02:33.499Z,65.82
2022-08-01T09:03:33.592Z,65.72
2022-08-01T09:04:33.500Z,65.34
2022-08-01T09:05:38.609Z,65.05
2022-08-01T09:06:33.499Z,65.05
2022-08-01T09:07:33.498Z,65.24
2022-08-01T09:08:33.499Z,64.95
2022-08-01T09:09:33.496Z,65.05
2022-08-01T09:10:33.492Z,65.92
2022-08-01T09:11:33.496Z,64.85
2022-08-01T09:12:33.494Z,65.05
2022-08-01T09:13:33.494Z,66.11
2022-08-01T09:14:33.502Z,65.82
2022-08-01T09:15:33.838Z,65.24
2022-08-01T09:16:33.486Z,65.43
2022-08-01T09:17:33.498Z,65.14
2022-08-01T09:18:33.484Z,64.95
2022-08-01T09:19:39.974Z,65.43
2022-08-01T09:20:33.489Z,65.63
2022-08-01T09:21:33.485Z,65.63
2022-08-01T09:22:33.485Z,65.43
2022-08-01T09:23:33.489Z,65.63
2022-08-01T09:24:33.500Z,65.05
2022-08-01T09:25:45.966Z,65.53
2022-08-01T09:26:34.012Z,65.24
2022-08-01T09:27:33.486Z,65.14
2022-08-01T09:28:33.487Z,65.05
2022-08-01T09:29:38.209Z,64.95
2022-08-01T09:30:33.491Z,65.24
2022-08-01T09:31:38.213Z,64.95
2022-08-01T09:32:36.433Z,64.95
2022-08-01T09:33:35.001Z,65.24
2022-08-01T09:34:33.477Z,65.34
2022-08-01T09:35:36.320Z,65.24
2022-08-01T09:36:33.481Z,65.24
2022-08-01T09:37:37.275Z,65.24
2022-08-01T09:38:33.486Z,65.24
2022-08-01T09:39:33.484Z,65.24
2022-08-01T09:40:33.482Z,65.14
2022-08-01T09:41:37.881Z,65.24
2022-08-01T09:42:33.484Z,65.14
2022-08-01T09:43:33.477Z,65.05
2022-08-01T09:44:42.205Z,65.34
2022-08-01T09:45:41.011Z,64.95
2022-08-01T09:46:33.470Z,65.27
2022-08-01T09:47:33.472Z,65.24
2022-08-01T09:48:33.480Z,65.34
2022-08-01T09:49:51.865Z,65.53
2022-08-01T09:50:33.484Z,64.95
2022-08-01T09:51:59.411Z,64.95
2022-08-01T09:52:33.474Z,65.14
2022-08-01T09:53:33.467Z,65.14
2022-08-01T09:54:33.477Z,65.14
2022-08-01T09:55:33.473Z,65.05
2022-08-01T09:56:33.479Z,64.85
2022-08-01T09:57:33.475Z,65.08
2022-08-01T09:58:33.473Z,65.05
2022-08-01T09:59:56.820Z,65.17
2022-08-01T10:00:45.373Z,65.34
2022-08-01T10:01:37.091Z,65.14
2022-08-01T10:03:19.479Z,64.66
2022-08-01T10:04:19.403Z,64.79
2022-08-01T10:05:37.051Z,64.56
2022-08-01T10:06:19.407Z,64.79
2022-08-01T10:07:22.029Z,64.89
2022-08-01T10:08:19.399Z,64.89
2022-08-01T10:09:19.395Z,64.79
2022-08-01T10:10:19.398Z,64.98
2022-08-01T10:11:19.402Z,64.95
2022-08-01T10:12:19.402Z,64.89
2022-08-01T10:13:19.403Z,65.08
2022-08-01T10:14:19.403Z,64.79
2022-08-01T10:15:19.399Z,64.79
2022-08-01T10:16:19.398Z,64.69
2022-08-01T10:17:19.717Z,64.50
2022-08-01T10:18:26.328Z,64.79
2022-08-01T10:19:19.396Z,64.40
2022-08-01T10:20:28.869Z,64.69
2022-08-01T10:21:47.585Z,64.59
2022-08-01T10:22:19.394Z,64.59
2022-08-01T10:23:19.391Z,64.31
2022-08-01T10:24:19.430Z,64.40
2022-08-01T10:25:41.965Z,64.21
2022-08-01T10:26:19.395Z,64.50
2022-08-01T10:27:24.380Z,64.31
2022-08-01T10:28:23.830Z,64.31
2022-08-01T10:29:58.995Z,64.11
2022-08-01T10:30:23.057Z,63.92
2022-08-01T10:31:19.389Z,64.01
2022-08-01T10:32:19.419Z,64.11
2022-08-01T10:33:19.936Z,64.11
2022-08-01T10:34:19.406Z,64.31
2022-08-01T10:35:19.720Z,63.92
2022-08-01T10:36:19.392Z,64.11
2022-08-01T10:37:19.391Z,64.21
2022-08-01T10:38:19.398Z,64.11
2022-08-01T10:39:20.106Z,64.40
2022-08-01T10:40:29.810Z,64.40
2022-08-01T10:41:19.397Z,64.21
2022-08-01T10:42:19.394Z,64.21
2022-08-01T10:43:21.525Z,64.01
2022-08-01T10:44:19.390Z,63.73
2022-08-01T10:45:19.389Z,63.85
2022-08-01T10:46:19.393Z,63.82
2022-08-01T10:47:22.943Z,63.92
2022-08-01T10:48:20.826Z,63.82
2022-08-01T10:49:19.483Z,63.92
2022-08-01T10:50:21.823Z,64.14
2022-08-01T10:51:19.398Z,63.85
2022-08-01T10:52:19.588Z,63.95
2022-08-01T10:53:23.121Z,63.92
2022-08-01T10:54:19.400Z,64.31
2022-08-01T10:55:19.408Z,64.14
2022-08-01T10:56:19.385Z,64.24
2022-08-01T10:57:19.391Z,64.21
2022-08-01T10:58:19.389Z,63.92
2022-08-01T10:59:49.186Z,64.01
2022-08-01T11:00:19.392Z,63.95
2022-08-01T11:01:19.610Z,64.01
2022-08-01T11:02:19.396Z,64.04
2022-08-01T11:03:30.974Z,64.14
2022-08-01T11:04:19.393Z,63.46
2022-08-01T11:05:19.391Z,63.85
2022-08-01T11:06:19.402Z,63.66
2022-08-01T11:07:19.402Z,63.43
2022-08-01T11:08:19.390Z,63.53
2022-08-01T11:09:19.407Z,63.63
2022-08-01T11:10:19.387Z,63.85
2022-08-01T11:11:19.389Z,63.56
2022-08-01T11:12:24.422Z,63.27
2022-08-01T11:13:19.391Z,63.46
2022-08-01T11:14:26.173Z,63.63
2022-08-01T11:15:29.036Z,63.27
2022-08-01T11:16:23.950Z,63.46
2022-08-01T11:17:19.391Z,63.56
2022-08-01T11:18:19.397Z,63.66
2022-08-01T11:19:19.393Z,63.66
2022-08-01T11:20:19.395Z,63.56
2022-08-01T11:21:57.044Z,63.46
2022-08-01T11:22:22.826Z,63.37
2022-08-01T11:23:19.392Z,63.27
2022-08-01T11:24:19.391Z,63.37
2022-08-01T11:25:19.391Z,63.18
2022-08-01T11:26:29.276Z,63.18
2022-08-01T11:27:20.446Z,63.18
2022-08-01T11:28:28.900Z,63.18
2022-08-01T11:29:22.108Z,63.18
2022-08-01T11:30:20.061Z,63.56
2022-08-01T11:31:19.390Z,63.18
2022-08-01T11:32:19.396Z,63.08
2022-08-01T11:33:19.380Z,62.98
2022-08-01T11:34:19.740Z,62.79
2022-08-01T11:35:19.389Z,62.88
2022-08-01T11:36:31.957Z,62.88
2022-08-01T11:37:19.389Z,62.88
2022-08-01T11:38:19.381Z,63.08
2022-08-01T11:39:19.385Z,62.88
2022-08-01T11:40:19.391Z,62.98
2022-08-01T11:41:19.384Z,63.08
2022-08-01T11:42:19.385Z,63.18
2022-08-01T11:43:19.383Z,62.98
2022-08-01T11:44:20.876Z,63.27
2022-08-01T11:45:19.390Z,63.08
2022-08-01T11:46:19.390Z,62.98
2022-08-01T11:47:21.279Z,63.18
2022-08-01T11:48:19.382Z,63.08
2022-08-01T11:49:19.465Z,62.59
2022-08-01T11:50:19.389Z,62.50
2022-08-01T11:51:25.298Z,63.08
2022-08-01T11:52:19.390Z,62.98
2022-08-01T11:53:19.383Z,63.27
2022-08-01T11:54:34.726Z,62.50
2022-08-01T11:55:19.394Z,62.79
2022-08-01T11:56:19.384Z,62.88
2022-08-01T11:57:19.417Z,62.88
2022-08-01T11:58:22.529Z,62.98
2022-08-01T11:59:19.392Z,63.18
2022-08-01T12:00:19.392Z,62.40
2022-08-01T12:01:19.387Z,62.98
2022-08-01T12:02:19.417Z,62.59
2022-08-01T12:03:29.465Z,62.88
2022-08-01T12:04:19.430Z,62.69
2022-08-01T12:05:19.510Z,62.50
2022-08-01T12:06:19.394Z,63.11
2022-08-01T12:07:19.395Z,62.98
2022-08-01T12:08:19.385Z,62.59
2022-08-01T12:09:19.396Z,62.59
2022-08-01T12:10:19.389Z,62.40
2022-08-01T12:11:19.388Z,62.40
2022-08-01T12:12:19.392Z,62.30
2022-08-01T12:13:19.390Z,62.50
2022-08-01T12:14:19.385Z,62.24
2022-08-01T12:15:19.395Z,62.53
2022-08-01T12:16:19.391Z,62.43
2022-08-01T12:17:19.391Z,62.34
2022-08-01T12:18:19.386Z,62.50
2022-08-01T12:19:19.393Z,62.34
2022-08-01T12:20:19.386Z,62.34
2022-08-01T12:21:19.392Z,62.24
2022-08-01T12:22:19.392Z,62.50
2022-08-01T12:23:19.391Z,62.53
2022-08-01T12:24:19.397Z,62.43
2022-08-01T12:25:19.400Z,62.24
2022-08-01T12:26:29.133Z,62.04
2022-08-01T12:27:19.393Z,61.95
2022-08-01T12:28:19.394Z,61.85
2022-08-01T12:29:19.395Z,62.04
2022-08-01T12:30:19.388Z,61.85
2022-08-01T12:31:19.399Z,61.95
2022-08-01T12:32:19.419Z,62.14
2022-08-01T12:33:19.401Z,61.95
2022-08-01T12:34:19.396Z,61.95
2022-08-01T12:35:19.404Z,61.95
2022-08-01T12:36:19.394Z,62.04
2022-08-01T12:37:19.402Z,61.76
2022-08-01T12:38:19.405Z,61.76
2022-08-01T12:39:19.400Z,61.85
2022-08-01T12:40:19.397Z,61.76
2022-08-01T12:41:19.403Z,61.76
2022-08-01T12:42:19.401Z,61.95
2022-08-01T12:43:27.351Z,61.95
2022-08-01T12:44:19.403Z,62.04
2022-08-01T12:45:19.406Z,61.46
2022-08-01T12:46:19.401Z,61.85
2022-08-01T12:47:19.407Z,61.56
2022-08-01T12:48:19.411Z,61.66
2022-08-01T12:49:19.484Z,61.46
2022-08-01T12:50:19.399Z,61.56
2022-08-01T12:51:19.397Z,61.76
2022-08-01T12:52:19.397Z,61.66
2022-08-01T12:53:19.425Z,61.66